createdAt,value
2022-10-18T00:04:57.600Z,12.10
2022-10-18T00:09:59.477Z,14.30
2022-10-18T00:15:06.575Z,13.90
2022-10-18T00:20:10.194Z,14.60
2022-10-18T00:25:12.071Z,14.70
2022-10-18T00:30:13.949Z,13.30
2022-10-18T00:35:16.031Z,16.20
2022-10-18T00:40:18.113Z,14.60
2022-10-18T00:45:22.962Z,15.20
2022-10-18T00:50:27.193Z,14.10
2022-10-18T00:55:32.140Z,14.40
2022-10-18T01:00:38.668Z,14.50
2022-10-18T01:05:45.419Z,14.40
2022-10-18T01:11:08.595Z,15.30
2022-10-18T01:16:53.585Z,14.80
2022-10-18T01:22:00.479Z,14.90
2022-10-18T01:27:11.471Z,14.70
2022-10-18T01:32:18.773Z,14.90
2022-10-18T01:37:22.391Z,15.40
2022-10-18T01:42:25.191Z,15.30
2022-10-18T01:47:28.610Z,15.40
2022-10-18T01:52:31.063Z,14.50
2022-10-18T01:58:02.361Z,14.90
2022-10-18T02:03:13.249Z,17.10
2022-10-18T02:08:26.800Z,16.00
2022-10-18T02:13:40.249Z,17.60
2022-10-18T02:18:50.114Z,15.00
2022-10-18T02:23:53.221Z,15.50
2022-10-18T02:28:55.302Z,16.90
2022-10-18T02:34:02.304Z,15.90
2022-10-18T02:39:14.050Z,16.10
2022-10-18T02:44:16.397Z,17.00
2022-10-18T02:49:18.272Z,16.20
2022-10-18T02:54:20.148Z,17.40
2022-10-18T02:59:22.028Z,16.90
2022-10-18T03:04:23.846Z,18.00
2022-10-18T03:09:25.787Z,16.80
2022-10-18T03:14:27.772Z,16.40
2022-10-18T03:19:29.639Z,19.40
2022-10-18T03:24:31.620Z,24.60
2022-10-18T03:29:33.495Z,22.80
2022-10-18T03:34:35.374Z,20.00
2022-10-18T03:39:37.250Z,17.10
2022-10-18T03:44:39.127Z,19.80
2022-10-18T03:49:41.210Z,21.60
2022-10-18T03:54:43.086Z,28.70
2022-10-18T03:59:44.961Z,56.90
2022-10-18T04:04:46.771Z,69.00
2022-10-18T04:09:48.640Z,57.50
2022-10-18T04:14:50.492Z,56.30
2022-10-18T04:19:52.472Z,34.60
2022-10-18T04:24:56.398Z,22.10
2022-10-18T04:29:58.275Z,26.70
2022-10-18T04:35:00.153Z,36.70
2022-10-18T04:40:02.133Z,50.40
2022-10-18T04:45:04.522Z,55.70
2022-10-18T04:50:06.807Z,47.40
2022-10-18T04:55:09.098Z,48.90
2022-10-18T05:00:11.896Z,57.00
2022-10-18T05:05:14.290Z,36.10
2022-10-18T05:10:16.467Z,29.60
2022-10-18T05:15:18.446Z,39.00
2022-10-18T05:20:20.530Z,46.80
2022-10-18T05:25:22.404Z,27.30
2022-10-18T05:30:26.228Z,19.00
2022-10-18T05:35:28.109Z,17.50
2022-10-18T05:40:29.982Z,18.10
2022-10-18T05:45:31.877Z,20.50
2022-10-18T05:50:36.688Z,25.50
2022-10-18T05:55:41.511Z,19.50
2022-10-18T06:00:43.328Z,26.30
2022-10-18T06:05:45.105Z,29.40
2022-10-18T06:10:46.983Z,22.60
2022-10-18T06:15:49.470Z,22.40
2022-10-18T06:20:59.261Z,30.70
2022-10-18T06:26:06.494Z,18.90
2022-10-18T06:31:11.385Z,17.20
2022-10-18T06:36:16.775Z,18.50
2022-10-18T06:41:20.021Z,18.60
2022-10-18T06:46:21.931Z,25.00
2022-10-18T06:51:23.707Z,22.00
2022-10-18T06:56:25.582Z,27.40
2022-10-18T07:01:30.672Z,32.30
2022-10-18T07:06:32.591Z,30.20
2022-10-18T07:11:34.696Z,16.80
2022-10-18T07:16:36.573Z,16.40
2022-10-18T07:21:38.452Z,24.20
2022-10-18T07:26:42.069Z,21.20
2022-10-18T07:31:44.061Z,18.00
2022-10-18T07:36:46.027Z,16.40
2022-10-18T07:41:47.908Z,14.00
2022-10-18T07:46:49.887Z,15.00
2022-10-18T07:51:51.658Z,13.70
2022-10-18T07:56:53.537Z,13.40
2022-10-18T08:01:55.465Z,13.60
2022-10-18T08:06:57.804Z,15.20
2022-10-18T08:11:59.886Z,13.50
2022-10-18T08:17:01.767Z,15.10
2022-10-18T08:22:03.641Z,16.00
2022-10-18T08:27:05.722Z,13.40
2022-10-18T08:32:08.624Z,14.10
2022-10-18T08:37:10.501Z,12.80
2022-10-18T08:42:35.621Z,14.60
2022-10-18T08:47:41.707Z,13.10
2022-10-18T08:53:01.599Z,11.80
2022-10-18T08:58:20.578Z,12.70
2022-10-18T09:03:50.267Z,19.10
2022-10-18T09:09:21.471Z,24.30
2022-10-18T09:14:41.982Z,12.40
2022-10-18T09:20:05.673Z,11.50
2022-10-18T09:25:22.602Z,10.90
2022-10-18T09:30:48.850Z,8.90
2022-10-18T09:35:57.181Z,8.40
2022-10-18T09:41:08.887Z,18.70
2022-10-18T09:46:12.198Z,21.30
2022-10-18T09:51:23.808Z,8.10
2022-10-18T09:57:06.044Z,7.10
2022-10-18T10:02:20.582Z,6.60
2022-10-18T10:07:35.147Z,6.80
2022-10-18T10:12:39.612Z,10.70
2022-10-18T10:17:42.820Z,15.10
2022-10-18T10:22:47.260Z,13.90
2022-10-18T10:27:49.546Z,16.80
2022-10-18T10:32:53.375Z,9.50
2022-10-18T10:37:55.353Z,8.20
2022-10-18T10:43:32.831Z,7.70
2022-10-18T10:48:57.064Z,7.80
2022-10-18T10:54:15.164Z,6.40
2022-10-18T10:59:19.548Z,6.00
2022-10-18T11:04:26.653Z,7.20
2022-10-18T11:09:53.414Z,5.60
2022-10-18T11:15:11.574Z,5.50
2022-10-18T11:20:22.306Z,6.20
2022-10-18T11:25:33.965Z,6.00
2022-10-18T11:30:55.092Z,5.00
2022-10-18T11:36:15.446Z,5.90
2022-10-18T11:41:39.399Z,6.00
2022-10-18T11:46:47.524Z,5.40
2022-10-18T11:52:09.397Z,6.90
2022-10-18T11:57:35.228Z,6.40
2022-10-18T12:02:43.250Z,5.80
2022-10-18T12:07:56.476Z,7.80
2022-10-18T12:13:02.343Z,20.80
2022-10-18T12:18:12.514Z,23.30
2022-10-18T12:23:38.698Z,22.80
2022-10-18T12:28:46.334Z,19.40
2022-10-18T12:33:52.963Z,19.80
2022-10-18T12:39:01.015Z,15.70
2022-10-18T12:44:06.035Z,9.40
2022-10-18T12:49:11.395Z,7.70
2022-10-18T12:54:18.582Z,10.00
2022-10-18T12:59:23.033Z,20.00
2022-10-18T13:04:27.787Z,15.60
2022-10-18T13:09:34.618Z,22.30
2022-10-18T13:15:12.444Z,20.20
2022-10-18T13:20:34.234Z,20.70
2022-10-18T13:25:57.820Z,20.10
2022-10-18T13:31:08.813Z,14.60
2022-10-18T13:36:21.797Z,20.00
2022-10-18T13:41:50.762Z,25.40
2022-10-18T13:46:55.507Z,20.70
2022-10-18T13:52:24.520Z,14.30
2022-10-18T13:58:00.706Z,8.00
2022-10-18T14:04:02.460Z,8.10
2022-10-18T14:09:25.562Z,9.10
2022-10-18T14:14:50.889Z,45.70
2022-10-18T14:20:01.978Z,10.50
2022-10-18T14:25:17.985Z,10.00
2022-10-18T14:30:20.513Z,7.30
2022-10-18T14:35:33.721Z,6.60
2022-10-18T14:40:38.507Z,8.10
2022-10-18T14:45:42.186Z,8.50
2022-10-18T14:50:47.955Z,8.90
2022-10-18T14:55:57.657Z,9.80
2022-10-18T15:00:59.630Z,9.80
2022-10-18T15:06:05.466Z,10.30
2022-10-18T15:11:10.616Z,9.20
2022-10-18T15:16:20.790Z,20.80
2022-10-18T15:21:24.610Z,10.40
2022-10-18T15:26:30.384Z,17.50
2022-10-18T15:31:44.034Z,10.30
2022-10-18T15:36:47.550Z,35.10
2022-10-18T15:41:58.624Z,28.90
2022-10-18T15:47:12.808Z,26.40
2022-10-18T15:52:38.631Z,17.20
2022-10-18T15:57:40.934Z,17.50
2022-10-18T16:02:42.812Z,15.30
2022-10-18T16:07:44.686Z,10.40
2022-10-18T16:12:46.497Z,30.70
2022-10-18T16:17:49.177Z,14.40
2022-10-18T16:22:51.147Z,11.00
2022-10-18T16:27:53.016Z,13.00
2022-10-18T16:32:54.891Z,15.40
2022-10-18T16:37:56.975Z,30.00
2022-10-18T16:42:58.857Z,28.70
2022-10-18T16:48:00.646Z,20.80
2022-10-18T16:53:02.401Z,16.40
2022-10-18T16:58:04.999Z,11.80
2022-10-18T17:03:08.205Z,11.30
2022-10-18T17:08:19.845Z,10.40
2022-10-18T17:13:22.915Z,10.80
2022-10-18T17:18:30.058Z,9.40
2022-10-18T17:23:31.875Z,42.40
2022-10-18T17:28:33.765Z,10.70
2022-10-18T17:33:36.670Z,33.80
2022-10-18T17:38:38.752Z,13.30
2022-10-18T17:48:47.321Z,10.00
2022-10-18T17:53:49.504Z,14.40
2022-10-18T17:58:51.792Z,13.50
2022-10-18T18:03:58.889Z,9.80
2022-10-18T18:09:06.400Z,7.10
2022-10-18T18:14:09.405Z,10.00
2022-10-18T18:19:12.312Z,12.60
2022-10-18T18:24:15.208Z,8.90
2022-10-18T18:29:17.185Z,8.20
2022-10-18T18:34:21.865Z,6.70
2022-10-18T18:39:29.133Z,8.60
2022-10-18T18:44:32.342Z,6.40
2022-10-18T18:49:34.937Z,8.00
2022-10-18T18:54:36.922Z,7.00
2022-10-18T18:59:38.800Z,6.40
2022-10-18T19:04:41.083Z,6.80
2022-10-18T19:09:44.288Z,5.60
2022-10-18T19:14:46.679Z,5.00
2022-10-18T19:19:48.657Z,5.20
2022-10-18T19:24:50.535Z,6.00
2022-10-18T19:29:52.512Z,4.30
2022-10-18T19:34:54.389Z,4.00
2022-10-18T19:39:56.368Z,4.60
2022-10-18T19:44:58.246Z,4.30
2022-10-18T19:50:00.247Z,4.40
2022-10-18T19:55:02.207Z,4.80
2022-10-18T20:00:08.211Z,5.30
2022-10-18T20:05:12.822Z,4.80
2022-10-18T20:10:14.800Z,5.60
2022-10-18T20:15:16.677Z,4.10
2022-10-18T20:20:18.556Z,4.00
2022-10-18T20:25:20.434Z,4.80
2022-10-18T20:30:22.265Z,3.90
2022-10-18T20:35:24.310Z,5.40
2022-10-18T20:40:26.166Z,3.90
2022-10-18T20:45:28.045Z,4.10
2022-10-18T20:50:29.921Z,3.60
2022-10-18T20:55:31.653Z,5.60
2022-10-18T21:00:34.714Z,3.90
2022-10-18T21:05:36.787Z,5.10
2022-10-18T21:10:38.659Z,5.50
2022-10-18T21:15:40.534Z,4.50
2022-10-18T21:20:42.514Z,4.80
2022-10-18T21:25:45.929Z,4.10
2022-10-18T21:30:47.806Z,5.00
2022-10-18T21:35:49.683Z,5.70
2022-10-18T21:40:51.564Z,6.90
2022-10-18T21:45:59.787Z,4.90
2022-10-18T21:51:05.803Z,5.80
2022-10-18T21:56:13.273Z,5.70
2022-10-18T22:01:18.100Z,5.20
2022-10-18T22:06:21.576Z,5.70
2022-10-18T22:11:33.235Z,5.40
2022-10-18T22:16:35.115Z,5.10
2022-10-18T22:21:37.002Z,5.50
2022-10-18T22:26:41.254Z,5.10
2022-10-18T22:36:50.202Z,5.40
2022-10-18T22:41:55.352Z,5.00
2022-10-18T22:46:57.231Z,4.50
2022-10-18T22:51:59.004Z,5.10
2022-10-18T22:57:00.883Z,5.00
2022-10-18T23:02:02.758Z,4.00
2022-10-18T23:07:04.637Z,5.10
2022-10-18T23:12:06.823Z,4.30
2022-10-18T23:17:08.596Z,4.70
2022-10-18T23:22:10.473Z,4.80
2022-10-18T23:27:12.247Z,4.70
2022-10-18T23:32:14.127Z,4.40
2022-10-18T23:37:16.002Z,4.00
2022-10-18T23:42:17.864Z,4.40
2022-10-18T23:47:19.759Z,4.60
2022-10-18T23:52:21.530Z,4.80
2022-10-18T23:57:23.282Z,4.80
